createdAt,value
2019-03-22T00:00:06.656Z,9.62
2019-03-22T00:01:06.634Z,9.75
2019-03-22T00:02:06.598Z,9.69
2019-03-22T00:03:06.578Z,9.67
2019-03-22T00:04:06.561Z,9.75
2019-03-22T00:05:06.536Z,9.69
2019-03-22T00:06:06.821Z,9.70
2019-03-22T00:07:06.502Z,9.70
2019-03-22T00:08:06.485Z,9.77
2019-03-22T00:09:06.448Z,9.65
2019-03-22T00:10:06.430Z,9.62
2019-03-22T00:11:06.412Z,9.69
2019-03-22T00:12:06.789Z,9.67
2019-03-22T00:13:06.379Z,9.70
2019-03-22T00:14:06.351Z,9.73
2019-03-22T00:15:06.326Z,9.78
2019-03-22T00:16:06.314Z,9.69
2019-03-22T00:17:06.285Z,9.69
2019-03-22T00:18:06.575Z,9.69
2019-03-22T00:19:06.248Z,9.72
2019-03-22T00:20:06.289Z,9.72
2019-03-22T00:21:06.201Z,9.80
2019-03-22T00:22:06.184Z,9.83
2019-03-22T00:23:06.163Z,9.80
2019-03-22T00:24:06.436Z,9.70
2019-03-22T00:25:06.116Z,9.90
2019-03-22T00:26:06.100Z,9.80
2019-03-22T00:27:15.897Z,9.77
2019-03-22T00:28:06.051Z,9.90
2019-03-22T00:29:06.044Z,9.91
2019-03-22T00:30:06.314Z,9.88
2019-03-22T00:31:05.995Z,9.96
2019-03-22T00:32:06.060Z,9.81
2019-03-22T00:33:05.978Z,9.72
2019-03-22T00:34:05.942Z,9.73
2019-03-22T00:35:05.908Z,9.73
2019-03-22T00:36:06.192Z,9.66
2019-03-22T00:37:05.883Z,9.60
2019-03-22T00:38:05.891Z,9.62
2019-03-22T00:39:05.827Z,9.60
2019-03-22T00:40:05.803Z,9.51
2019-03-22T00:41:05.778Z,9.54
2019-03-22T00:42:06.113Z,9.52
2019-03-22T00:43:05.736Z,9.52
2019-03-22T00:44:05.715Z,9.57
2019-03-22T00:45:05.693Z,9.50
2019-03-22T00:46:05.684Z,9.52
2019-03-22T00:47:05.715Z,9.51
2019-03-22T00:48:05.645Z,9.50
2019-03-22T00:49:05.924Z,9.42
2019-03-22T00:50:05.588Z,9.42
2019-03-22T00:51:05.570Z,9.40
2019-03-22T00:52:05.555Z,9.33
2019-03-22T00:53:05.526Z,9.30
2019-03-22T00:54:05.505Z,9.22
2019-03-22T00:55:05.530Z,9.32
2019-03-22T00:56:05.776Z,9.24
2019-03-22T00:57:05.444Z,9.22
2019-03-22T00:58:05.444Z,9.19
2019-03-22T00:59:05.402Z,9.12
2019-03-22T01:00:05.373Z,9.23
2019-03-22T01:01:05.354Z,9.18
2019-03-22T01:02:05.329Z,9.23
2019-03-22T01:03:05.621Z,9.22
2019-03-22T01:04:05.305Z,9.19
2019-03-22T01:06:05.251Z,9.22
2019-03-22T01:07:05.227Z,9.22
2019-03-22T01:08:05.411Z,9.29
2019-03-22T01:09:05.188Z,9.24
2019-03-22T01:10:05.467Z,9.14
2019-03-22T01:11:05.147Z,9.11
2019-03-22T01:12:05.121Z,9.24
2019-03-22T01:13:05.102Z,9.24
2019-03-22T01:14:05.084Z,9.11
2019-03-22T01:15:05.069Z,9.18
2019-03-22T01:16:05.038Z,9.09
2019-03-22T01:17:05.326Z,9.09
2019-03-22T01:18:05.029Z,9.15
2019-03-22T01:19:04.970Z,9.11
2019-03-22T01:20:04.962Z,9.15
2019-03-22T01:21:04.937Z,9.08
2019-03-22T01:22:04.901Z,9.24
2019-03-22T01:23:04.884Z,9.14
2019-03-22T01:24:05.116Z,9.19
2019-03-22T01:25:04.846Z,9.26
2019-03-22T01:26:04.826Z,9.19
2019-03-22T01:27:04.811Z,9.29
2019-03-22T01:28:04.773Z,9.24
2019-03-22T01:29:04.754Z,9.29
2019-03-22T01:30:04.734Z,9.29
2019-03-22T01:31:05.013Z,9.24
2019-03-22T01:32:04.691Z,9.27
2019-03-22T01:33:04.671Z,9.26
2019-03-22T01:34:04.751Z,9.32
2019-03-22T01:35:04.634Z,9.23
2019-03-22T01:37:04.890Z,9.24
2019-03-22T01:38:04.563Z,9.19
2019-03-22T01:39:04.543Z,9.29
2019-03-22T01:40:04.522Z,9.29
2019-03-22T01:41:04.513Z,9.24
2019-03-22T01:42:04.496Z,9.19
2019-03-22T01:43:04.774Z,9.27
2019-03-22T01:44:04.437Z,9.24
2019-03-22T01:45:04.521Z,9.23
2019-03-22T01:46:04.395Z,9.32
2019-03-22T01:47:04.392Z,9.27
2019-03-22T01:48:04.351Z,9.22
2019-03-22T01:49:04.628Z,9.26
2019-03-22T01:50:04.311Z,9.29
2019-03-22T01:52:04.261Z,9.30
2019-03-22T01:53:04.242Z,9.32
2019-03-22T01:54:04.219Z,9.27
2019-03-22T01:55:04.510Z,9.32
2019-03-22T01:56:04.184Z,9.23
2019-03-22T01:57:04.169Z,9.41
2019-03-22T01:58:04.145Z,9.36
2019-03-22T02:01:04.534Z,9.27
2019-03-22T02:02:04.048Z,9.37
2019-03-22T02:03:04.039Z,9.40
2019-03-22T02:04:04.025Z,9.44
2019-03-22T02:05:03.996Z,9.45
2019-03-22T02:06:04.052Z,9.47
2019-03-22T02:07:04.201Z,9.41
2019-03-22T02:08:03.928Z,9.42
2019-03-22T02:09:03.925Z,9.41
2019-03-22T02:10:03.885Z,9.51
2019-03-22T02:11:03.858Z,9.59
2019-03-22T02:12:03.835Z,9.55
2019-03-22T02:13:03.810Z,9.55
2019-03-22T02:14:04.089Z,9.54
2019-03-22T02:15:03.771Z,9.59
2019-03-22T02:16:03.760Z,9.66
2019-03-22T02:17:03.785Z,9.52
2019-03-22T02:18:03.786Z,9.65
2019-03-22T02:19:03.693Z,9.63
2019-03-22T02:20:03.675Z,9.62
2019-03-22T02:21:03.949Z,9.65
2019-03-22T02:22:03.615Z,9.57
2019-03-22T02:23:03.599Z,9.59
2019-03-22T02:24:03.804Z,9.67
2019-03-22T02:25:03.564Z,9.60
2019-03-22T02:26:03.543Z,9.59
2019-03-22T02:27:03.523Z,9.63
2019-03-22T02:28:04.606Z,9.62
2019-03-22T02:29:03.484Z,9.60
2019-03-22T02:30:03.469Z,9.62
2019-03-22T02:31:03.432Z,9.63
2019-03-22T02:32:03.417Z,9.57
2019-03-22T02:33:03.391Z,9.55
2019-03-22T02:34:03.390Z,9.60
2019-03-22T02:36:03.322Z,9.55
2019-03-22T02:37:03.307Z,9.60
2019-03-22T02:38:03.294Z,9.62
2019-03-22T02:39:03.253Z,9.62
2019-03-22T02:40:03.235Z,9.60
2019-03-22T02:41:03.208Z,9.60
2019-03-22T02:42:03.669Z,9.60
2019-03-22T02:43:03.188Z,9.48
2019-03-22T02:44:03.503Z,9.57
2019-03-22T02:45:03.142Z,9.55
2019-03-22T02:46:03.109Z,9.47
2019-03-22T02:47:03.124Z,9.51
2019-03-22T02:48:03.098Z,9.47
2019-03-22T02:49:03.355Z,9.50
2019-03-22T02:50:17.170Z,9.54
2019-03-22T02:51:03.005Z,9.41
2019-03-22T02:52:03.085Z,9.40
2019-03-22T02:53:03.095Z,9.42
2019-03-22T02:54:02.941Z,9.42
2019-03-22T02:55:02.923Z,9.45
2019-03-22T02:56:03.299Z,9.41
2019-03-22T02:57:02.886Z,9.41
2019-03-22T02:58:02.857Z,9.40
2019-03-22T03:00:02.832Z,9.29
2019-03-22T03:01:03.020Z,9.27
2019-03-22T03:02:03.081Z,9.19
2019-03-22T03:03:02.757Z,9.11
2019-03-22T03:04:02.793Z,9.18
2019-03-22T03:05:03.197Z,9.14
2019-03-22T03:06:02.676Z,9.11
2019-03-22T03:07:02.659Z,9.12
2019-03-22T03:08:02.886Z,9.14
2019-03-22T03:09:03.319Z,9.12
2019-03-22T03:10:02.617Z,9.14
2019-03-22T03:11:02.582Z,9.06
2019-03-22T03:12:02.558Z,9.19
2019-03-22T03:13:02.534Z,9.11
2019-03-22T03:14:02.813Z,9.12
2019-03-22T03:15:02.551Z,9.11
2019-03-22T03:16:02.476Z,9.04
2019-03-22T03:18:02.430Z,9.04
2019-03-22T03:19:02.483Z,9.08
2019-03-22T03:20:02.689Z,9.04
2019-03-22T03:21:02.365Z,9.03
2019-03-22T03:22:02.353Z,9.12
2019-03-22T03:23:02.336Z,9.08
2019-03-22T03:24:02.318Z,9.11
2019-03-22T03:25:02.291Z,9.15
2019-03-22T03:26:02.562Z,9.09
2019-03-22T03:27:02.233Z,9.06
2019-03-22T03:29:02.198Z,9.08
2019-03-22T03:30:02.282Z,9.14
2019-03-22T03:31:02.171Z,9.04
2019-03-22T03:32:02.510Z,9.15
2019-03-22T03:33:02.228Z,9.08
2019-03-22T03:34:02.096Z,9.16
2019-03-22T03:35:02.145Z,9.15
2019-03-22T03:36:02.043Z,9.06
2019-03-22T03:37:02.038Z,9.08
2019-03-22T03:38:02.034Z,9.08
2019-03-22T03:39:02.293Z,9.11
2019-03-22T03:40:01.977Z,9.03
2019-03-22T03:41:01.936Z,9.03
2019-03-22T03:42:01.915Z,9.03
2019-03-22T03:43:01.906Z,8.96
2019-03-22T03:44:01.884Z,8.92
2019-03-22T03:45:01.895Z,8.86
2019-03-22T03:46:02.156Z,8.90
2019-03-22T03:47:01.826Z,8.85
2019-03-22T03:48:01.784Z,8.78
2019-03-22T03:49:01.764Z,8.78
2019-03-22T03:50:01.762Z,8.80
2019-03-22T03:51:01.791Z,8.70
2019-03-22T03:52:01.694Z,8.70
2019-03-22T03:53:02.020Z,8.67
2019-03-22T03:54:01.646Z,8.62
2019-03-22T03:55:01.678Z,8.57
2019-03-22T03:56:01.617Z,8.50
2019-03-22T03:57:01.591Z,8.49
2019-03-22T03:58:01.704Z,8.37
2019-03-22T03:59:01.579Z,8.41
2019-03-22T04:00:01.836Z,8.32
2019-03-22T04:01:01.508Z,8.35
2019-03-22T04:02:01.488Z,8.29
2019-03-22T04:03:01.459Z,8.16
2019-03-22T04:04:01.449Z,8.20
2019-03-22T04:05:01.423Z,8.16
2019-03-22T04:07:01.694Z,8.04
2019-03-22T04:08:01.368Z,8.01
2019-03-22T04:09:01.337Z,7.96
2019-03-22T04:10:01.316Z,8.05
2019-03-22T04:11:01.283Z,7.86
2019-03-22T04:12:01.275Z,7.96
2019-03-22T04:13:01.247Z,7.88
2019-03-22T04:14:01.520Z,7.91
2019-03-22T04:15:01.216Z,7.78
2019-03-22T04:16:01.214Z,7.81
2019-03-22T04:17:01.204Z,7.80
2019-03-22T04:18:01.129Z,7.74
2019-03-22T04:19:01.111Z,7.84
2019-03-22T04:20:01.238Z,7.84
2019-03-22T04:21:01.357Z,7.73
2019-03-22T04:22:01.049Z,7.66
2019-03-22T04:23:01.651Z,7.69
2019-03-22T04:24:01.150Z,7.66
2019-03-22T04:25:00.984Z,7.71
2019-03-22T04:26:00.991Z,7.71
2019-03-22T04:27:01.229Z,7.58
2019-03-22T04:28:00.901Z,7.57
2019-03-22T04:29:07.121Z,7.57
2019-03-22T04:30:00.917Z,7.52
2019-03-22T04:31:00.826Z,7.57
2019-03-22T04:32:00.830Z,7.50
2019-03-22T04:33:01.043Z,7.47
2019-03-22T04:34:00.768Z,7.55
2019-03-22T04:35:00.745Z,7.40
2019-03-22T04:36:00.715Z,7.49
2019-03-22T04:37:00.697Z,7.43
2019-03-22T04:38:00.667Z,7.44
2019-03-22T04:40:00.921Z,7.31
2019-03-22T04:41:00.652Z,7.34
2019-03-22T04:42:00.584Z,7.24
2019-03-22T04:43:00.710Z,7.31
2019-03-22T04:44:00.535Z,7.13
2019-03-22T04:45:00.816Z,7.18
2019-03-22T04:47:00.975Z,7.04
2019-03-22T04:48:00.552Z,7.00
2019-03-22T04:49:00.416Z,7.11
2019-03-22T04:50:00.392Z,7.00
2019-03-22T04:51:00.370Z,7.06
2019-03-22T04:52:00.348Z,7.06
2019-03-22T04:53:00.626Z,7.06
2019-03-22T04:54:00.298Z,7.01
2019-03-22T04:55:00.533Z,7.08
2019-03-22T04:57:00.262Z,7.06
2019-03-22T04:58:00.220Z,6.97
2019-03-22T04:59:00.492Z,7.03
2019-03-22T05:00:00.341Z,7.03
2019-03-22T05:01:00.144Z,6.89
2019-03-22T05:02:00.134Z,6.91
2019-03-22T05:03:00.095Z,6.89
2019-03-22T05:04:00.067Z,6.83
2019-03-22T05:05:00.120Z,6.93
2019-03-22T05:07:00.299Z,6.74
2019-03-22T05:07:59.976Z,6.78
2019-03-22T05:09:59.928Z,6.89
2019-03-22T05:11:00.671Z,6.93
2019-03-22T05:11:59.879Z,6.92
2019-03-22T05:12:59.856Z,6.91
2019-03-22T05:14:00.139Z,6.91
2019-03-22T05:14:59.843Z,6.91
2019-03-22T05:15:59.819Z,6.89
2019-03-22T05:16:59.761Z,6.86
2019-03-22T05:17:59.928Z,6.81
2019-03-22T05:18:59.748Z,6.79
2019-03-22T05:19:59.692Z,6.82
2019-03-22T05:20:59.922Z,6.79
2019-03-22T05:21:59.650Z,6.78
2019-03-22T05:22:59.634Z,6.79
2019-03-22T05:23:59.710Z,6.73
2019-03-22T05:24:59.721Z,6.71
2019-03-22T05:25:59.558Z,6.75
2019-03-22T05:26:59.526Z,6.68
2019-03-22T05:27:59.833Z,6.67
2019-03-22T05:28:59.478Z,6.65
2019-03-22T05:29:59.463Z,6.68
2019-03-22T05:30:59.434Z,6.68
2019-03-22T05:31:59.412Z,6.68
2019-03-22T05:32:59.383Z,6.65
2019-03-22T05:33:59.361Z,6.71
2019-03-22T05:34:59.657Z,6.64
2019-03-22T05:35:59.318Z,6.65
2019-03-22T05:36:59.305Z,6.68
2019-03-22T05:37:59.280Z,6.71
2019-03-22T05:38:59.257Z,6.73
2019-03-22T05:39:59.225Z,6.74
2019-03-22T05:40:59.208Z,6.83
2019-03-22T05:41:59.490Z,6.78
2019-03-22T05:42:59.188Z,6.78
2019-03-22T05:43:59.149Z,6.74
2019-03-22T05:44:59.186Z,6.82
2019-03-22T05:45:59.120Z,6.74
2019-03-22T05:46:59.118Z,6.83
2019-03-22T05:47:59.347Z,6.81
2019-03-22T05:48:59.035Z,6.86
2019-03-22T05:49:59.154Z,6.89
2019-03-22T05:50:58.976Z,6.93
2019-03-22T05:51:58.944Z,6.91
2019-03-22T05:52:58.999Z,6.93
2019-03-22T05:56:01.095Z,7.16
2019-03-22T05:57:00.097Z,7.24
2019-03-22T05:57:58.979Z,7.25
2019-03-22T05:59:00.697Z,7.31
2019-03-22T05:59:59.068Z,7.37
2019-03-22T06:00:58.747Z,7.37
2019-03-22T06:01:58.720Z,7.39
2019-03-22T06:02:58.692Z,7.47
2019-03-22T06:03:58.669Z,7.54
2019-03-22T06:04:58.660Z,7.39
2019-03-22T06:05:58.928Z,7.42
2019-03-22T06:07:58.654Z,7.34
2019-03-22T06:08:58.569Z,7.33
2019-03-22T06:11:59.041Z,7.39
2019-03-22T06:12:58.846Z,7.36
2019-03-22T06:13:59.245Z,7.43
2019-03-22T06:14:58.719Z,7.55
2019-03-22T06:15:58.411Z,7.58
2019-03-22T06:17:58.670Z,7.54
2019-03-22T06:19:58.604Z,7.49
2019-03-22T06:21:58.301Z,7.55
2019-03-22T06:22:58.386Z,7.52
2019-03-22T06:23:58.738Z,7.52
2019-03-22T06:24:58.291Z,7.42
2019-03-22T06:25:58.903Z,7.39
2019-03-22T06:26:58.216Z,7.39
2019-03-22T06:27:58.235Z,7.55
2019-03-22T06:28:58.118Z,7.50
2019-03-22T06:29:58.083Z,7.57
2019-03-22T06:30:58.066Z,7.62
2019-03-22T06:31:58.037Z,7.62
2019-03-22T06:32:58.020Z,7.64
2019-03-22T06:33:58.194Z,7.60
2019-03-22T06:34:58.057Z,7.68
2019-03-22T06:35:58.852Z,7.73
2019-03-22T06:36:58.015Z,7.76
2019-03-22T06:37:57.910Z,7.71
2019-03-22T06:38:58.083Z,7.78
2019-03-22T06:39:57.875Z,7.83
2019-03-22T06:40:58.225Z,7.84
2019-03-22T06:41:58.111Z,7.88
2019-03-22T06:42:57.793Z,7.98
2019-03-22T06:43:57.785Z,8.01
2019-03-22T06:44:57.762Z,8.13
2019-03-22T06:45:57.833Z,8.14
2019-03-22T06:46:57.704Z,8.23
2019-03-22T06:47:59.219Z,8.20
2019-03-22T06:48:57.730Z,8.44
2019-03-22T06:49:57.694Z,8.39
2019-03-22T06:50:57.631Z,8.44
2019-03-22T06:51:57.686Z,8.32
2019-03-22T06:52:57.578Z,8.37
2019-03-22T06:53:57.865Z,8.53
2019-03-22T06:54:57.595Z,8.53
2019-03-22T06:55:57.530Z,8.57
2019-03-22T06:56:57.524Z,8.74
2019-03-22T06:57:57.469Z,8.77
2019-03-22T06:58:57.488Z,8.77
2019-03-22T07:00:06.494Z,8.88
2019-03-22T07:00:57.823Z,8.95
2019-03-22T07:01:57.423Z,9.01
2019-03-22T07:02:57.358Z,9.11
2019-03-22T07:03:57.399Z,9.12
2019-03-22T07:04:57.386Z,9.08
2019-03-22T07:05:57.907Z,9.11
2019-03-22T07:06:57.320Z,9.23
2019-03-22T07:08:57.264Z,9.24
2019-03-22T07:09:57.222Z,9.24
2019-03-22T07:10:57.240Z,9.27
2019-03-22T07:11:57.170Z,9.27
2019-03-22T07:12:57.522Z,9.34
2019-03-22T07:13:57.146Z,9.45
2019-03-22T07:14:57.104Z,9.41
2019-03-22T07:15:57.146Z,9.48
2019-03-22T07:16:58.908Z,9.47
2019-03-22T07:17:57.099Z,9.51
2019-03-22T07:18:57.395Z,9.47
2019-03-22T07:19:57.298Z,9.62
2019-03-22T07:20:59.029Z,9.59
2019-03-22T07:22:57.005Z,9.72
2019-03-22T07:23:57.095Z,9.84
2019-03-22T07:24:57.258Z,9.70
2019-03-22T07:25:56.977Z,9.81
2019-03-22T07:26:56.968Z,9.90
2019-03-22T07:27:56.851Z,10.02
2019-03-22T07:28:56.873Z,10.01
2019-03-22T07:29:56.861Z,10.08
2019-03-22T07:30:57.088Z,10.14
2019-03-22T07:31:56.759Z,10.18
2019-03-22T07:32:56.950Z,10.30
2019-03-22T07:33:56.732Z,10.21
2019-03-22T07:34:57.896Z,10.26
2019-03-22T07:35:56.713Z,10.30
2019-03-22T07:36:57.095Z,10.26
2019-03-22T07:37:56.632Z,10.39
2019-03-22T07:38:56.713Z,10.38
2019-03-22T07:39:56.615Z,10.39
2019-03-22T07:40:56.595Z,10.41
2019-03-22T07:41:56.551Z,10.41
2019-03-22T07:42:56.833Z,10.48
2019-03-22T07:43:56.517Z,10.55
2019-03-22T07:44:56.499Z,10.60
2019-03-22T07:45:56.524Z,10.60
2019-03-22T07:46:56.455Z,10.68
2019-03-22T07:47:56.444Z,10.67
2019-03-22T07:48:56.707Z,10.79
2019-03-22T07:49:56.396Z,10.78
2019-03-22T07:50:56.368Z,10.85
2019-03-22T07:51:56.374Z,10.91
2019-03-22T07:52:56.333Z,11.03
2019-03-22T07:53:56.315Z,10.97
2019-03-22T07:54:56.592Z,11.03
2019-03-22T07:55:56.270Z,11.09
2019-03-22T07:56:56.247Z,11.15
2019-03-22T07:57:56.233Z,11.19
2019-03-22T07:59:56.191Z,11.31
2019-03-22T08:00:56.553Z,11.25
2019-03-22T08:01:56.247Z,11.34
2019-03-22T08:02:56.135Z,11.37
2019-03-22T08:03:56.118Z,11.45
2019-03-22T08:04:56.126Z,11.27
2019-03-22T08:05:56.078Z,11.37
2019-03-22T08:06:56.438Z,11.40
2019-03-22T08:07:56.336Z,11.34
2019-03-22T08:08:56.042Z,11.46
2019-03-22T08:09:56.131Z,11.51
2019-03-22T08:10:56.006Z,11.54
2019-03-22T08:11:55.963Z,11.51
2019-03-22T08:12:56.363Z,11.38
2019-03-22T08:13:55.923Z,11.51
2019-03-22T08:14:55.927Z,11.56
2019-03-22T08:15:57.518Z,11.56
2019-03-22T08:16:55.905Z,11.71
2019-03-22T08:17:57.087Z,11.67
2019-03-22T08:18:56.132Z,11.73
2019-03-22T08:19:57.286Z,11.85
2019-03-22T08:20:55.794Z,11.91
2019-03-22T08:21:56.043Z,11.95
2019-03-22T08:22:55.758Z,12.07
2019-03-22T08:23:55.743Z,12.15
2019-03-22T08:24:56.346Z,12.18
2019-03-22T08:25:55.709Z,12.26
2019-03-22T08:26:56.504Z,12.22
2019-03-22T08:27:55.804Z,12.25
2019-03-22T08:31:55.650Z,12.53
2019-03-22T08:32:55.626Z,12.54
2019-03-22T08:33:55.730Z,12.50
2019-03-22T08:34:55.567Z,12.48
2019-03-22T08:35:55.534Z,12.55
2019-03-22T08:36:55.873Z,12.58
2019-03-22T08:37:55.703Z,12.68
2019-03-22T08:38:55.895Z,12.77
2019-03-22T08:39:56.000Z,12.83
2019-03-22T08:40:55.536Z,12.77
2019-03-22T08:41:55.427Z,12.86
2019-03-22T08:43:55.482Z,12.84
2019-03-22T08:44:55.376Z,12.88
2019-03-22T08:45:55.582Z,12.91
2019-03-22T08:46:55.362Z,12.96
2019-03-22T08:48:55.742Z,12.71
2019-03-22T08:49:55.296Z,12.59
2019-03-22T08:50:55.304Z,12.68
2019-03-22T08:51:55.255Z,12.66
2019-03-22T08:52:55.234Z,12.61
2019-03-22T08:53:55.851Z,12.65
2019-03-22T08:54:55.518Z,12.68
2019-03-22T08:55:55.201Z,12.66
2019-03-22T08:56:55.262Z,12.73
2019-03-22T08:58:55.186Z,12.87
2019-03-22T08:59:55.105Z,12.99
2019-03-22T09:00:57.886Z,13.08
2019-03-22T09:01:55.173Z,13.21
2019-03-22T09:02:55.070Z,13.21
2019-03-22T09:03:55.039Z,13.26
2019-03-22T09:04:55.037Z,13.24
2019-03-22T09:05:55.479Z,13.01
2019-03-22T09:06:55.307Z,12.95
2019-03-22T09:07:54.985Z,13.04
2019-03-22T09:09:54.973Z,12.98
2019-03-22T09:11:54.919Z,13.30
2019-03-22T09:12:55.201Z,13.35
2019-03-22T09:13:54.872Z,13.38
2019-03-22T09:14:54.897Z,13.04
2019-03-22T09:15:54.956Z,13.17
2019-03-22T09:17:54.952Z,13.39
2019-03-22T09:18:55.145Z,13.58
2019-03-22T09:19:54.927Z,13.55
2019-03-22T09:20:54.813Z,13.82
2019-03-22T09:21:54.831Z,13.80
2019-03-22T09:23:54.891Z,13.80
2019-03-22T09:24:56.097Z,13.73
2019-03-22T09:25:55.602Z,13.55
2019-03-22T09:26:54.847Z,13.43
2019-03-22T09:27:54.686Z,13.45
2019-03-22T09:29:54.683Z,13.53
2019-03-22T09:30:54.997Z,13.72
2019-03-22T09:31:54.620Z,13.61
2019-03-22T09:32:54.776Z,13.64
2019-03-22T09:33:54.740Z,13.63
2019-03-22T09:34:54.686Z,13.61
2019-03-22T09:35:54.702Z,13.51
2019-03-22T09:36:54.857Z,13.86
2019-03-22T09:38:54.505Z,14.36
2019-03-22T09:39:54.602Z,14.33
2019-03-22T09:40:54.551Z,14.30
2019-03-22T09:41:54.673Z,14.23
2019-03-22T09:42:54.809Z,14.21
2019-03-22T09:43:54.520Z,14.23
2019-03-22T09:44:54.463Z,14.31
2019-03-22T09:45:54.462Z,14.51
2019-03-22T09:46:54.454Z,14.46
2019-03-22T09:47:54.388Z,14.58
2019-03-22T09:48:54.722Z,14.55
2019-03-22T09:50:54.579Z,14.23
2019-03-22T09:51:55.313Z,14.45
2019-03-22T09:52:54.376Z,14.70
2019-03-22T09:53:54.337Z,15.10
2019-03-22T09:54:54.573Z,14.86
2019-03-22T09:55:54.240Z,14.73
2019-03-22T09:56:54.846Z,14.82
2019-03-22T09:57:54.232Z,14.92
2019-03-22T09:58:54.218Z,15.01
2019-03-22T09:59:54.230Z,15.11
2019-03-22T10:00:54.507Z,15.54
2019-03-22T10:02:00.558Z,15.52
2019-03-22T10:02:54.286Z,15.27
2019-03-22T10:03:54.233Z,14.74
2019-03-22T10:04:54.314Z,14.58
2019-03-22T10:05:54.141Z,14.46
2019-03-22T10:06:54.485Z,14.49
2019-03-22T10:07:54.118Z,14.61
2019-03-22T10:08:54.120Z,14.63
2019-03-22T10:09:54.129Z,15.15
2019-03-22T10:10:54.128Z,15.78
2019-03-22T10:12:54.753Z,15.93
2019-03-22T10:13:53.982Z,16.83
2019-03-22T10:14:54.131Z,17.65
2019-03-22T10:15:54.133Z,18.18
2019-03-22T10:16:54.253Z,18.17
2019-03-22T10:17:54.014Z,18.75
2019-03-22T10:18:54.396Z,18.98
2019-03-22T10:19:53.943Z,18.85
2019-03-22T10:20:54.500Z,18.79
2019-03-22T10:21:54.490Z,18.85
2019-03-22T10:22:54.552Z,18.85
2019-03-22T10:23:54.104Z,18.83
2019-03-22T10:24:54.254Z,18.66
2019-03-22T10:25:53.863Z,19.32
2019-03-22T10:26:53.920Z,19.87
2019-03-22T10:27:53.818Z,19.42
2019-03-22T10:28:53.824Z,19.04
2019-03-22T10:29:53.806Z,19.12
2019-03-22T10:30:54.110Z,18.86
2019-03-22T10:31:53.825Z,19.24
2019-03-22T10:32:53.795Z,19.57
2019-03-22T10:33:53.786Z,19.70
2019-03-22T10:34:54.050Z,19.23
2019-03-22T10:35:53.956Z,19.04
2019-03-22T10:36:54.148Z,19.08
2019-03-22T10:38:00.345Z,18.12
2019-03-22T10:38:54.472Z,17.52
2019-03-22T10:39:53.751Z,17.04
2019-03-22T10:40:53.848Z,16.21
2019-03-22T10:41:53.851Z,16.97
2019-03-22T10:44:53.826Z,18.33
2019-03-22T10:45:53.753Z,18.63
2019-03-22T10:46:53.820Z,19.07
2019-03-22T10:47:53.676Z,19.47
2019-03-22T10:48:53.732Z,19.22
2019-03-22T10:55:53.940Z,19.97
2019-03-22T10:56:53.655Z,19.54
2019-03-22T10:57:55.445Z,19.57
2019-03-22T10:58:53.511Z,19.78
2019-03-22T10:59:53.515Z,20.05
2019-03-22T11:00:53.555Z,19.93
2019-03-22T11:02:03.167Z,20.11
2019-03-22T11:02:53.497Z,20.19
2019-03-22T11:03:53.576Z,19.32
2019-03-22T11:04:53.461Z,19.05
2019-03-22T11:05:53.726Z,18.64
2019-03-22T11:06:53.443Z,18.57
2019-03-22T11:07:53.724Z,18.98
2019-03-22T11:08:53.409Z,19.15
2019-03-22T11:09:53.407Z,18.93
2019-03-22T11:10:53.396Z,19.34
2019-03-22T11:11:53.379Z,19.64
2019-03-22T11:12:53.381Z,19.67
2019-03-22T11:13:53.670Z,20.14
2019-03-22T11:15:53.374Z,19.60
2019-03-22T11:16:53.346Z,19.54
2019-03-22T11:17:53.347Z,19.75
2019-03-22T11:18:53.341Z,20.26
2019-03-22T11:19:53.676Z,20.68
2019-03-22T11:20:53.312Z,20.98
2019-03-22T11:21:53.331Z,20.89
2019-03-22T11:22:53.299Z,21.20
2019-03-22T11:23:53.301Z,21.56
2019-03-22T11:24:53.290Z,20.36
2019-03-22T11:26:03.568Z,20.29
2019-03-22T11:26:53.298Z,20.77
2019-03-22T11:27:53.326Z,20.73
2019-03-22T11:28:53.243Z,20.39
2019-03-22T11:29:53.236Z,20.30
2019-03-22T11:30:53.282Z,20.67
2019-03-22T11:31:53.545Z,21.16
2019-03-22T11:32:53.234Z,21.41
2019-03-22T11:33:53.219Z,20.77
2019-03-22T11:34:53.206Z,20.70
2019-03-22T11:35:53.254Z,20.89
2019-03-22T11:36:53.190Z,20.75
2019-03-22T11:37:53.669Z,20.26
2019-03-22T11:38:53.178Z,20.41
2019-03-22T11:39:53.175Z,20.80
2019-03-22T11:40:53.305Z,21.11
2019-03-22T11:41:53.203Z,21.37
2019-03-22T11:42:53.148Z,21.23
2019-03-22T11:43:53.445Z,21.04
2019-03-22T11:44:53.143Z,21.22
2019-03-22T11:45:54.145Z,21.47
2019-03-22T11:46:53.179Z,21.50
2019-03-22T11:47:53.113Z,21.34
2019-03-22T11:48:53.213Z,21.51
2019-03-22T11:49:53.431Z,21.34
2019-03-22T11:50:53.192Z,21.74
2019-03-22T11:51:53.095Z,21.50
2019-03-22T11:52:53.073Z,21.71
2019-03-22T11:53:53.174Z,22.13
2019-03-22T11:54:53.161Z,22.48
2019-03-22T11:56:53.047Z,21.93
2019-03-22T11:57:53.055Z,21.96
2019-03-22T12:01:53.340Z,23.04
2019-03-22T12:02:53.029Z,23.21
2019-03-22T12:03:53.019Z,22.98
2019-03-22T12:04:53.016Z,22.99
2019-03-22T12:05:53.001Z,22.76
2019-03-22T12:06:53.036Z,22.74
2019-03-22T12:07:53.297Z,23.13
2019-03-22T12:08:53.025Z,23.29
2019-03-22T12:09:52.968Z,23.03
2019-03-22T12:10:52.960Z,22.66
2019-03-22T12:11:52.966Z,22.61
2019-03-22T12:12:52.952Z,22.88
2019-03-22T12:13:53.279Z,22.96
2019-03-22T12:14:52.951Z,22.40
2019-03-22T12:15:52.936Z,22.23
2019-03-22T12:16:53.002Z,22.30
2019-03-22T12:17:53.613Z,22.66
2019-03-22T12:18:53.745Z,22.83
2019-03-22T12:19:53.272Z,23.15
2019-03-22T12:20:52.996Z,23.51
2019-03-22T12:21:53.314Z,23.06
2019-03-22T12:22:53.021Z,23.21
2019-03-22T12:23:52.918Z,23.08
2019-03-22T12:24:52.949Z,22.96
2019-03-22T12:25:53.200Z,22.83
2019-03-22T12:26:52.901Z,22.07
2019-03-22T12:28:52.986Z,22.80
2019-03-22T12:29:53.486Z,22.83
2019-03-22T12:30:52.856Z,23.18
2019-03-22T12:31:53.219Z,23.49
2019-03-22T12:32:52.866Z,23.37
2019-03-22T12:33:53.018Z,23.55
2019-03-22T12:34:52.844Z,23.56
2019-03-22T12:35:52.996Z,22.81
2019-03-22T12:36:52.845Z,22.33
2019-03-22T12:37:53.245Z,22.43
2019-03-22T12:38:52.844Z,22.53
2019-03-22T12:39:52.944Z,22.33
2019-03-22T12:40:53.019Z,22.34
2019-03-22T12:41:52.869Z,22.66
2019-03-22T12:42:52.849Z,22.89
2019-03-22T12:43:53.216Z,22.96
2019-03-22T12:45:52.913Z,22.19
2019-03-22T12:46:52.971Z,21.69
2019-03-22T12:47:52.924Z,22.09
2019-03-22T12:48:52.829Z,22.21
2019-03-22T12:49:54.304Z,22.48
2019-03-22T12:50:53.119Z,22.52
2019-03-22T12:51:52.752Z,22.92
2019-03-22T12:52:53.103Z,22.56
2019-03-22T12:53:52.760Z,22.73
2019-03-22T12:54:52.746Z,22.85
2019-03-22T12:55:52.981Z,23.33
2019-03-22T12:56:52.761Z,23.63
2019-03-22T12:57:52.896Z,23.92
2019-03-22T12:58:52.712Z,24.23
2019-03-22T12:59:52.794Z,24.45
2019-03-22T13:00:53.141Z,24.33
2019-03-22T13:01:53.010Z,24.62
2019-03-22T13:02:52.711Z,24.71
2019-03-22T13:03:52.777Z,24.04
2019-03-22T13:04:52.684Z,23.01
2019-03-22T13:05:52.691Z,23.33
2019-03-22T13:06:53.251Z,23.07
2019-03-22T13:07:52.982Z,23.60
2019-03-22T13:08:52.675Z,23.63
2019-03-22T13:09:52.743Z,23.63
2019-03-22T13:10:52.650Z,23.63
2019-03-22T13:11:52.641Z,23.46
2019-03-22T13:12:52.743Z,23.60
2019-03-22T13:13:52.968Z,23.81
2019-03-22T13:14:52.700Z,24.01
2019-03-22T13:15:52.627Z,24.28
2019-03-22T13:16:52.675Z,24.60
2019-03-22T13:17:52.615Z,24.59
2019-03-22T13:18:52.605Z,24.31
2019-03-22T13:19:52.975Z,23.33
2019-03-22T13:20:52.918Z,22.28
2019-03-22T13:22:52.700Z,23.15
2019-03-22T13:23:52.623Z,22.31
2019-03-22T13:24:52.581Z,22.00
2019-03-22T13:25:53.115Z,21.60
2019-03-22T13:26:52.566Z,21.69
2019-03-22T13:27:52.645Z,21.50
2019-03-22T13:28:52.556Z,22.27
2019-03-22T13:29:52.945Z,22.77
2019-03-22T13:30:52.662Z,22.41
2019-03-22T13:31:52.865Z,22.86
2019-03-22T13:32:53.173Z,23.41
2019-03-22T13:33:53.437Z,23.84
2019-03-22T13:34:52.593Z,24.40
2019-03-22T13:35:53.124Z,24.81
2019-03-22T13:37:52.824Z,24.74
2019-03-22T13:38:52.514Z,24.26
2019-03-22T13:39:52.501Z,23.88
2019-03-22T13:40:52.495Z,24.01
2019-03-22T13:41:53.376Z,24.31
2019-03-22T13:42:52.491Z,23.88
2019-03-22T13:43:52.891Z,23.61
2019-03-22T13:44:52.486Z,23.76
2019-03-22T13:45:52.470Z,23.49
2019-03-22T13:46:52.500Z,23.55
2019-03-22T13:47:52.450Z,23.82
2019-03-22T13:48:52.454Z,23.97
2019-03-22T13:49:52.767Z,24.19
2019-03-22T13:51:52.507Z,24.56
2019-03-22T13:52:52.447Z,24.00
2019-03-22T13:53:52.444Z,24.04
2019-03-22T13:54:52.432Z,23.61
2019-03-22T13:55:53.551Z,23.64
2019-03-22T13:56:52.415Z,24.15
2019-03-22T13:57:52.433Z,23.85
2019-03-22T13:58:52.427Z,23.85
2019-03-22T13:59:52.651Z,23.56
2019-03-22T14:00:53.282Z,23.37
2019-03-22T14:01:52.828Z,22.93
2019-03-22T14:03:02.080Z,22.81
2019-03-22T14:03:52.364Z,23.26